Time;durP1;ratioP1;P1;durP2;ratioP2;P2;SDS_P1;SDS_P2;PMS_P1;PMS_P2;Temp;Humidity;BMP_temperature;BMP_pressure;BME280_temperature;BME280_humidity;BME280_pressure;Samples;Min_cycle;Max_cycle;Signal;HPM_P1;HPM_P2
2020/12/07 00:01:25;;;;;;;15.07;12.35;;;;;;;4.10;99.81;98891.44;4772415;30;20059;-80
2020/12/07 00:04:30;;;;;;;14.98;12.55;;;;;;;4.04;99.69;98889.31;4779303;30;20059;-79
2020/12/07 00:07:35;;;;;;;14.82;12.48;;;;;;;4.09;99.81;98895.06;4790033;30;20062;-80
2020/12/07 00:10:40;;;;;;;14.25;12.75;;;;;;;4.00;99.88;98889.69;4788912;30;20073;-81
2020/12/07 00:13:44;;;;;;;18.55;12.95;;;;;;;3.95;99.68;98874.97;4742325;30;20400;-81
2020/12/07 00:16:49;;;;;;;16.20;13.35;;;;;;;3.73;99.51;98867.16;4772060;30;20058;-81
2020/12/07 00:19:54;;;;;;;18.33;15.32;;;;;;;3.67;99.22;98874.78;4771704;30;20058;-81
2020/12/07 00:23:00;;;;;;;18.27;15.30;;;;;;;3.59;99.06;98874.56;4773162;30;20075;-82
2020/12/07 00:26:11;;;;;;;17.50;14.60;;;;;;;3.53;99.10;98883.88;4773196;30;20059;-81
2020/12/07 00:29:15;;;;;;;18.45;14.00;;;;;;;3.53;99.16;98878.56;4772586;30;20074;-81
2020/12/07 00:32:20;;;;;;;18.92;15.27;;;;;;;3.44;99.27;98881.13;4772693;30;20058;-81
2020/12/07 00:35:25;;;;;;;19.67;16.35;;;;;;;3.44;99.25;98881.97;4772072;30;20499;-81
2020/12/07 00:38:29;;;;;;;19.13;15.68;;;;;;;3.35;99.37;98872.16;4772197;30;20171;-81
2020/12/07 00:41:33;;;;;;;22.17;17.98;;;;;;;3.20;99.05;98881.34;4772317;30;20059;-81
2020/12/07 00:44:39;;;;;;;19.95;16.77;;;;;;;3.20;98.44;98881.34;4754636;30;20071;-81
2020/12/07 00:47:44;;;;;;;19.83;17.23;;;;;;;3.06;98.85;98879.78;4754892;30;20593;-81
2020/12/07 00:50:48;;;;;;;22.83;18.05;;;;;;;3.07;99.07;98884.13;4757546;30;20075;-81
2020/12/07 00:53:52;;;;;;;19.95;16.75;;;;;;;3.06;98.84;98892.22;4771598;30;20063;-81
2020/12/07 00:56:59;;;;;;;19.52;17.42;;;;;;;3.03;98.92;98893.31;4771629;30;20054;-81
2020/12/07 01:00:08;;;;;;;24.17;20.23;;;;;;;3.04;99.20;98886.19;4771697;30;20079;-81
2020/12/07 01:03:16;;;;;;;25.25;21.77;;;;;;;2.95;99.14;98882.47;4771570;30;20514;-81
2020/12/07 01:06:27;;;;;;;24.08;20.48;;;;;;;2.93;99.40;98895.03;4771669;30;20063;-82
2020/12/07 01:09:32;;;;;;;25.13;20.77;;;;;;;2.84;99.33;98892.25;4771813;30;20062;-81
2020/12/07 01:12:36;;;;;;;25.58;21.52;;;;;;;2.84;99.20;98916.94;4771360;30;20066;-80
2020/12/07 01:15:40;;;;;;;24.45;20.85;;;;;;;2.82;99.62;98915.38;4771540;30;20166;-81
2020/12/07 01:18:46;;;;;;;22.52;20.23;;;;;;;2.88;99.42;98923.69;4771194;30;20063;-81
2020/12/07 01:21:50;;;;;;;27.70;22.52;;;;;;;2.80;99.43;98960.53;4772092;30;20065;-81
2020/12/07 01:24:56;;;;;;;21.40;18.83;;;;;;;2.74;98.99;98970.78;4771243;30;20400;-81
2020/12/07 01:28:02;;;;;;;24.75;21.85;;;;;;;2.80;99.41;98959.69;4771386;30;20066;-79
2020/12/07 01:31:07;;;;;;;23.80;21.00;;;;;;;2.80;99.50;98952.59;4772056;30;20059;-81
2020/12/07 01:34:11;;;;;;;26.67;21.50;;;;;;;2.83;99.87;98949.69;4771896;30;20054;-81
2020/12/07 01:37:16;;;;;;;23.92;19.52;;;;;;;2.86;99.71;98945.97;4772001;30;20055;-80
2020/12/07 01:40:21;;;;;;;22.98;19.77;;;;;;;2.87;99.68;98972.34;4770370;30;20054;-80
2020/12/07 01:43:26;;;;;;;23.45;19.98;;;;;;;2.92;99.88;98996.66;4760861;30;20073;-79
2020/12/07 01:46:36;;;;;;;22.38;19.83;;;;;;;2.95;99.59;98985.84;4760783;30;20058;-80
2020/12/07 01:49:41;;;;;;;21.20;18.92;;;;;;;3.01;99.67;98993.28;4771503;30;20400;-79
2020/12/07 01:52:47;;;;;;;23.02;19.50;;;;;;;3.03;99.75;98982.59;4770764;30;20507;-81
2020/12/07 01:55:53;;;;;;;25.48;21.30;;;;;;;3.13;99.56;98979.09;4770767;30;20515;-81
2020/12/07 01:59:00;;;;;;;23.60;20.40;;;;;;;3.13;99.57;98963.19;4770812;30;20507;-80
2020/12/07 02:02:13;;;;;;;27.00;23.67;;;;;;;3.09;99.30;98952.91;4770785;30;20062;-81
2020/12/07 02:05:18;;;;;;;26.50;23.52;;;;;;;3.13;99.38;98960.53;4771056;30;20136;-80
2020/12/07 02:08:25;;;;;;;26.33;21.92;;;;;;;3.15;99.29;98971.00;4771054;30;20063;-81
2020/12/07 02:11:48;;;;;;;30.45;25.80;;;;;;;3.14;99.25;98990.50;4770628;30;20055;-81
2020/12/07 02:14:53;;;;;;;27.88;23.67;;;;;;;3.14;99.55;98986.06;4749503;30;20075;-81
2020/12/07 02:17:57;;;;;;;27.83;22.63;;;;;;;3.16;99.38;98972.69;4770402;30;20063;-81
2020/12/07 02:23:28;;;;;;;30.35;23.27;;;;;;;3.22;99.37;98964.25;4779514;30;20055;-81
2020/12/07 02:26:42;;;;;;;29.83;23.35;;;;;;;3.29;99.45;98968.94;4786143;30;20072;-79
2020/12/07 02:29:47;;;;;;;26.42;21.85;;;;;;;3.26;99.54;98966.53;4783046;30;20050;-81
2020/12/07 02:32:53;;;;;;;25.65;20.15;;;;;;;3.31;99.39;98963.50;4770592;30;20067;-82
2020/12/07 02:36:08;;;;;;;23.55;18.92;;;;;;;3.34;99.12;98957.94;4770535;30;20120;-81
2020/12/07 02:39:13;;;;;;;22.58;19.92;;;;;;;3.37;99.15;98965.66;4770185;30;20067;-81
2020/12/07 02:42:24;;;;;;;26.60;20.15;;;;;;;3.32;99.25;98948.44;4734875;30;20064;-81
2020/12/07 02:45:29;;;;;;;25.85;20.98;;;;;;;3.33;99.26;98942.19;4735110;30;20056;-81
2020/12/07 02:48:40;;;;;;;26.73;20.67;;;;;;;3.35;98.93;98949.03;4734969;30;20052;-80
2020/12/07 02:51:48;;;;;;;28.20;21.27;;;;;;;3.33;98.91;98952.78;4734670;30;20401;-81
2020/12/07 02:54:59;;;;;;;28.45;20.25;;;;;;;3.36;99.08;98968.47;4734372;30;20056;-80
2020/12/07 02:58:07;;;;;;;25.45;21.17;;;;;;;3.20;98.69;98972.34;4734661;30;20060;-80
2020/12/07 03:01:12;;;;;;;26.42;21.83;;;;;;;3.14;98.87;98994.00;4734593;30;20125;-79
2020/12/07 03:04:16;;;;;;;24.48;21.17;;;;;;;3.07;98.79;98984.88;4734598;30;20068;-80
2020/12/07 03:07:21;;;;;;;24.70;20.60;;;;;;;3.12;98.96;99016.31;4734900;30;20060;-81
2020/12/07 03:10:30;;;;;;;24.33;20.20;;;;;;;3.11;98.84;99017.28;4734590;30;20060;-80
2020/12/07 03:13:35;;;;;;;22.60;19.85;;;;;;;3.06;98.60;99032.72;4734290;30;20081;-82
2020/12/07 03:16:40;;;;;;;22.40;19.33;;;;;;;3.04;98.53;99040.75;4734411;30;20075;-80
2020/12/07 03:19:45;;;;;;;23.77;20.25;;;;;;;3.00;98.52;99041.13;4738220;30;20060;-80
2020/12/07 03:22:49;;;;;;;25.83;20.05;;;;;;;3.07;98.45;99064.38;4737920;30;20063;-81
2020/12/07 03:25:54;;;;;;;22.70;19.55;;;;;;;3.10;98.63;99069.44;4737282;30;20067;-81
2020/12/07 03:29:03;;;;;;;23.42;20.48;;;;;;;3.15;98.44;99088.50;4737935;30;20488;-80
2020/12/07 03:32:09;;;;;;;22.42;19.95;;;;;;;3.16;97.95;99046.94;4737718;30;20056;-79
2020/12/07 03:35:15;;;;;;;23.00;20.50;;;;;;;3.03;97.61;99022.34;4727878;30;20064;-81
2020/12/07 03:38:23;;;;;;;21.45;19.13;;;;;;;3.16;98.07;98973.53;4737748;30;20055;-80
2020/12/07 03:41:29;;;;;;;24.30;20.60;;;;;;;3.18;97.86;99006.09;4762245;30;20068;-81
2020/12/07 03:44:33;;;;;;;25.13;21.70;;;;;;;3.12;97.90;98988.00;4772690;30;20519;-80
2020/12/07 03:47:38;;;;;;;25.33;21.40;;;;;;;3.18;98.36;98998.13;4773000;30;20392;-80
2020/12/07 03:50:43;;;;;;;23.45;20.30;;;;;;;3.27;98.37;98999.19;4772993;30;20124;-80
2020/12/07 03:53:48;;;;;;;23.02;19.67;;;;;;;3.34;98.30;99000.38;4762420;30;20054;-81
2020/12/07 03:56:52;;;;;;;18.65;16.65;;;;;;;3.47;98.28;98994.94;4773252;30;20063;-81
2020/12/07 03:59:57;;;;;;;20.38;17.90;;;;;;;3.44;98.43;98980.13;4772968;30;20055;-81
2020/12/07 04:03:05;;;;;;;18.55;16.42;;;;;;;3.51;98.82;98993.72;4772811;30;20068;-80
2020/12/07 04:06:37;;;;;;;22.10;18.90;;;;;;;3.55;98.33;98995.19;4772204;30;20408;-81
2020/12/07 04:09:46;;;;;;;20.90;18.27;;;;;;;3.54;98.73;98994.31;4772748;30;20059;-80
2020/12/07 04:12:51;;;;;;;20.60;17.50;;;;;;;3.53;98.72;98999.75;4773382;30;20063;-80
2020/12/07 04:15:55;;;;;;;20.30;17.70;;;;;;;3.51;98.58;99005.16;4773408;30;20059;-81
2020/12/07 04:18:59;;;;;;;18.88;16.88;;;;;;;3.53;98.33;99005.06;4773443;30;20058;-81
2020/12/07 04:22:04;;;;;;;21.25;18.40;;;;;;;3.43;98.05;99001.47;4773383;30;20414;-81
2020/12/07 04:25:09;;;;;;;22.35;16.30;;;;;;;3.42;97.66;99005.91;4772619;30;20047;-80
2020/12/07 04:28:13;;;;;;;21.58;19.05;;;;;;;3.30;97.84;99012.22;4773003;30;20062;-80
2020/12/07 04:31:17;;;;;;;23.25;18.02;;;;;;;3.29;97.76;99003.41;4773072;30;20050;-80
2020/12/07 04:34:22;;;;;;;26.20;21.02;;;;;;;3.34;98.38;99002.19;4773120;30;20066;-81
2020/12/07 04:37:26;;;;;;;28.88;20.75;;;;;;;3.49;98.19;99000.97;4772572;30;20177;-79
2020/12/07 04:40:30;;;;;;;28.67;20.92;;;;;;;3.45;98.33;99011.00;4771754;30;20417;-80
2020/12/07 04:43:35;;;;;;;28.88;21.45;;;;;;;3.47;98.62;99014.34;4766184;30;20059;-80
2020/12/07 04:46:40;;;;;;;26.58;20.10;;;;;;;3.46;98.40;99023.25;4782806;30;20059;-80
2020/12/07 04:49:46;;;;;;;31.10;22.08;;;;;;;3.51;98.94;99038.81;4759481;30;20051;-80
2020/12/07 04:52:50;;;;;;;38.55;25.88;;;;;;;3.46;99.17;99033.88;4754719;30;20055;-81
2020/12/07 04:55:57;;;;;;;34.47;26.27;;;;;;;3.56;99.09;99032.19;4765643;30;20059;-80
2020/12/07 04:59:02;;;;;;;32.72;25.83;;;;;;;3.58;99.48;99029.41;4772782;30;20062;-80
2020/12/07 05:02:07;;;;;;;30.20;20.75;;;;;;;3.70;99.74;99039.03;4772033;30;20500;-78
2020/12/07 05:05:12;;;;;;;27.63;20.15;;;;;;;3.86;99.64;99052.75;4772523;30;20058;-81
2020/12/07 05:08:16;;;;;;;27.92;19.35;;;;;;;3.89;99.60;99068.44;4771794;30;20051;-81
2020/12/07 05:11:20;;;;;;;20.60;14.40;;;;;;;4.02;99.48;99074.44;4771821;30;20499;-80
2020/12/07 05:14:25;;;;;;;22.13;14.60;;;;;;;4.09;99.48;99083.56;4772251;30;20532;-81
2020/12/07 05:17:29;;;;;;;19.70;13.27;;;;;;;4.12;99.35;99091.31;4772102;30;20059;-81
2020/12/07 05:20:34;;;;;;;17.98;12.70;;;;;;;4.14;99.17;99093.81;4772332;30;20055;-81
2020/12/07 05:23:42;;;;;;;19.10;12.25;;;;;;;4.16;98.93;99087.41;4772126;30;20490;-78
2020/12/07 05:26:47;;;;;;;12.15;8.13;;;;;;;4.39;98.21;99070.44;4772219;30;20058;-79
2020/12/07 05:33:07;;;;;;;15.55;8.93;;;;;;;4.51;98.12;99069.41;4753600;30;20067;-81
2020/12/07 05:36:12;;;;;;;12.65;8.90;;;;;;;4.58;97.86;99057.31;4770604;30;20067;-80
2020/12/07 05:39:17;;;;;;;12.63;7.88;;;;;;;4.63;97.43;99043.63;4771845;30;20058;-80
2020/12/07 05:42:23;;;;;;;9.52;5.53;;;;;;;4.75;97.14;99031.09;4772123;30;20074;-81
2020/12/07 05:45:28;;;;;;;8.00;3.67;;;;;;;4.88;96.26;99047.69;4771584;30;20055;-79
2020/12/07 05:48:35;;;;;;;7.43;2.60;;;;;;;5.07;95.02;99042.47;4771611;30;20054;-80
2020/12/07 05:51:47;;;;;;;6.95;2.25;;;;;;;5.22;93.43;99033.19;4753792;30;20051;-82
2020/12/07 05:54:53;;;;;;;2.55;1.20;;;;;;;5.46;91.06;99041.66;4760290;30;20059;-81
2020/12/07 05:58:05;;;;;;;4.20;1.70;;;;;;;5.46;90.46;99044.34;4770486;30;20068;-82
2020/12/07 06:01:16;;;;;;;5.07;1.90;;;;;;;5.45;90.01;99050.66;4771455;30;20074;-80
2020/12/07 06:04:21;;;;;;;4.47;2.78;;;;;;;5.36;90.20;99039.97;4753584;30;20059;-81
2020/12/07 06:07:30;;;;;;;12.10;7.13;;;;;;;5.31;90.50;99047.50;4752698;30;20061;-81
2020/12/07 06:10:40;;;;;;;4.22;1.35;;;;;;;5.38;90.29;99040.69;4759354;30;20111;-80
2020/12/07 06:13:46;;;;;;;4.43;0.93;;;;;;;5.46;89.74;99044.34;4753529;30;20055;-81
2020/12/07 06:16:51;;;;;;;5.13;1.35;;;;;;;5.48;88.79;99047.69;4753715;30;20181;-81
2020/12/07 06:19:55;;;;;;;2.30;0.90;;;;;;;5.43;89.02;99052.56;4753185;30;20079;-78
2020/12/07 06:23:01;;;;;;;3.10;1.20;;;;;;;5.43;89.34;99065.06;4752712;30;20081;-78
2020/12/07 06:26:11;;;;;;;2.30;1.10;;;;;;;5.56;89.46;99077.16;4764752;30;20530;-78
2020/12/07 06:29:15;;;;;;;5.43;1.05;;;;;;;5.84;87.30;99070.25;4770430;30;20520;-79
2020/12/07 06:32:20;;;;;;;4.25;1.13;;;;;;;5.76;87.75;99072.72;4769263;30;20491;-81
2020/12/07 06:35:27;;;;;;;2.00;0.90;;;;;;;5.67;88.30;99073.56;4769251;30;20408;-81
2020/12/07 06:38:42;;;;;;;4.07;1.10;;;;;;;5.59;88.88;99082.22;4762629;30;20051;-81
2020/12/07 06:41:47;;;;;;;3.72;1.20;;;;;;;5.55;89.32;99096.78;4769685;30;20113;-81
2020/12/07 06:44:51;;;;;;;3.65;1.30;;;;;;;5.55;89.72;99095.94;4770697;30;20063;-81
2020/12/07 06:47:56;;;;;;;3.17;1.02;;;;;;;5.44;90.12;99083.53;4768720;30;20060;-81
2020/12/07 06:51:00;;;;;;;3.13;1.20;;;;;;;5.40;90.24;99091.94;4770620;30;20503;-81
2020/12/07 06:55:02;;;;;;;2.35;1.05;;;;;;;5.54;89.35;99095.06;4770571;30;20063;-81
2020/12/07 06:57:47;;;;;;;11.05;5.30;;;;;;;5.46;89.98;99105.53;4774137;30;20050;-81
2020/12/07 07:00:51;;;;;;;7.45;2.10;;;;;;;5.50;89.71;99092.81;4763550;30;20055;-81
2020/12/07 07:03:56;;;;;;;9.25;2.90;;;;;;;5.38;89.89;99083.25;4778051;30;20065;-81
2020/12/07 07:07:01;;;;;;;6.85;2.17;;;;;;;5.41;90.06;99098.91;4783997;30;20051;-80
2020/12/07 07:10:08;;;;;;;5.22;2.25;;;;;;;5.39;90.05;99101.72;4773806;30;20073;-79
2020/12/07 07:13:12;;;;;;;4.65;2.55;;;;;;;5.39;90.01;99104.38;4772728;30;20055;-80
2020/12/07 07:16:18;;;;;;;6.30;2.95;;;;;;;5.56;90.83;99108.25;4755948;30;20059;-81
2020/12/07 07:19:24;;;;;;;8.18;3.88;;;;;;;5.43;90.71;99107.63;4762741;30;20080;-81
2020/12/07 07:22:28;;;;;;;5.75;3.75;;;;;;;5.36;90.28;99127.78;4773694;30;20531;-80
2020/12/07 07:29:15;;;;;;;6.00;3.72;;;;;;;5.37;90.19;99142.75;4725729;30;20559;-80
2020/12/07 07:32:21;;;;;;;8.18;4.60;;;;;;;5.38;89.84;99147.09;4733380;30;20056;-81
2020/12/07 07:35:29;;;;;;;7.43;5.28;;;;;;;5.37;89.08;99158.72;4729546;30;20551;-81
2020/12/07 07:38:34;;;;;;;6.90;5.82;;;;;;;5.46;89.12;99164.06;4724506;30;20045;-80
2020/12/07 07:41:39;;;;;;;8.48;6.10;;;;;;;5.52;88.64;99160.06;4734614;30;20056;-81
2020/12/07 07:44:48;;;;;;;11.68;8.25;;;;;;;5.64;88.20;99154.53;4734035;30;20067;-81
2020/12/07 07:48:01;;;;;;;11.15;7.88;;;;;;;5.73;88.19;99161.69;4734022;30;20157;-81
2020/12/07 07:59:11;;;;;;;12.15;7.95;;;;;;;7.37;80.92;99162.78;4726287;30;20449;-79
2020/12/07 08:18:36;;;;;;;15.85;9.18;;;;;;;6.17;85.80;99195.13;4754916;30;20063;-84
2020/12/07 08:21:40;;;;;;;16.60;12.75;;;;;;;6.11;85.99;99197.47;4755325;30;20060;-81
2020/12/07 08:24:57;;;;;;;30.13;21.00;;;;;;;6.34;86.10;99206.97;4755248;30;20071;-80
2020/12/07 08:28:02;;;;;;;22.08;16.33;;;;;;;6.69;85.20;99201.97;4755073;30;20063;-81
2020/12/07 08:31:13;;;;;;;12.60;8.88;;;;;;;6.81;85.08;99208.03;4754130;30;20063;-81
2020/12/07 08:34:29;;;;;;;11.30;7.07;;;;;;;6.75;84.94;99201.44;4754810;30;20067;-81
2020/12/07 08:37:43;;;;;;;32.60;9.05;;;;;;;6.60;84.86;99189.47;4754346;30;20600;-81
2020/12/07 08:40:47;;;;;;;17.42;6.40;;;;;;;6.51;85.13;99206.31;4761759;30;20068;-81
2020/12/07 08:44:13;;;;;;;11.27;6.93;;;;;;;6.52;85.95;99211.50;4772783;30;20063;-80
2020/12/07 08:47:17;;;;;;;12.25;7.72;;;;;;;6.65;85.71;99213.91;4772230;30;20412;-81
2020/12/07 08:50:22;;;;;;;12.82;7.43;;;;;;;6.80;84.87;99217.00;4772552;30;20073;-80
2020/12/07 08:53:26;;;;;;;11.40;6.97;;;;;;;6.87;84.78;99210.13;4771372;30;20078;-82
2020/12/07 08:56:31;;;;;;;25.67;7.88;;;;;;;7.03;84.02;99213.94;4754712;30;20059;-80
2020/12/07 08:59:35;;;;;;;11.25;7.57;;;;;;;7.24;82.87;99227.13;4754443;30;20060;-81
2020/12/07 09:02:39;;;;;;;11.68;7.60;;;;;;;7.23;82.96;99236.13;4754441;30;20070;-82
2020/12/07 09:05:43;;;;;;;12.52;7.47;;;;;;;7.20;82.83;99239.94;4754196;30;20412;-82
2020/12/07 09:08:49;;;;;;;36.30;9.90;;;;;;;8.17;80.60;99245.94;4754340;30;20048;-80
2020/12/07 09:11:54;;;;;;;13.10;5.93;;;;;;;8.25;77.83;99244.19;4761720;30;20523;-80
2020/12/07 09:14:59;;;;;;;10.75;6.35;;;;;;;7.62;78.67;99259.16;4767825;30;20063;-81
2020/12/07 09:18:03;;;;;;;12.68;6.53;;;;;;;7.06;81.14;99266.19;4772171;30;20047;-81
2020/12/07 09:21:09;;;;;;;12.20;7.43;;;;;;;6.78;83.59;99275.81;4771996;30;20396;-83
2020/12/07 09:24:17;;;;;;;8.38;5.80;;;;;;;6.57;85.60;99288.38;4772281;30;20050;-79
2020/12/07 09:27:22;;;;;;;10.70;4.97;;;;;;;6.66;85.46;99298.25;4772812;30;20054;-77
2020/12/07 09:30:26;;;;;;;8.38;5.55;;;;;;;6.61;84.74;99275.63;4765016;30;20055;-80
2020/12/07 09:33:31;;;;;;;7.60;3.83;;;;;;;6.55;83.99;99245.88;4767574;30;20400;-82
2020/12/07 09:36:36;;;;;;;4.60;2.25;;;;;;;6.77;77.92;99258.13;4771345;30;20051;-82
2020/12/07 09:39:42;;;;;;;4.40;2.33;;;;;;;6.92;77.48;99262.09;4771721;30;20059;-82
2020/12/07 09:42:46;;;;;;;7.10;2.72;;;;;;;7.10;77.30;99275.59;4763001;30;20059;-82
2020/12/07 09:45:50;;;;;;;4.15;2.10;;;;;;;7.30;76.52;99295.13;4754013;30;20515;-81
2020/12/07 09:48:55;;;;;;;3.83;2.03;;;;;;;7.48;74.21;99293.47;4753676;30;20063;-81
2020/12/07 09:51:59;;;;;;;3.40;1.60;;;;;;;7.54;73.10;99291.06;4757547;30;20424;-82
2020/12/07 09:55:06;;;;;;;4.68;1.92;;;;;;;7.71;70.74;99290.34;4771012;30;20063;-81
2020/12/07 09:58:11;;;;;;;3.00;1.33;;;;;;;7.79;71.73;99290.47;4770026;30;20055;-82
2020/12/07 10:01:15;;;;;;;4.28;1.60;;;;;;;7.94;70.71;99276.66;4770506;30;20059;-82
2020/12/07 10:04:20;;;;;;;3.38;1.15;;;;;;;7.97;71.71;99255.00;4770948;30;20072;-82
2020/12/07 10:07:25;;;;;;;2.90;1.10;;;;;;;8.11;70.45;99249.16;4770544;30;20584;-81
2020/12/07 10:10:31;;;;;;;4.38;1.25;;;;;;;8.15;69.80;99258.56;4770428;30;20066;-81
2020/12/07 10:13:35;;;;;;;4.85;1.15;;;;;;;8.23;70.09;99262.22;4770116;30;20066;-81
2020/12/07 10:16:43;;;;;;;4.95;0.93;;;;;;;8.22;70.76;99278.41;4769848;30;20070;-81
2020/12/07 10:19:48;;;;;;;2.80;1.10;;;;;;;8.19;70.87;99276.03;4771056;30;20059;-81
2020/12/07 10:22:52;;;;;;;4.40;1.15;;;;;;;8.13;71.41;99266.75;4770491;30;20059;-81
2020/12/07 10:25:56;;;;;;;5.00;1.13;;;;;;;8.18;70.96;99269.81;4770638;30;20067;-81
2020/12/07 10:29:01;;;;;;;4.35;1.00;;;;;;;8.16;70.98;99250.44;4770439;30;20059;-80
2020/12/07 10:32:06;;;;;;;3.00;1.10;;;;;;;8.14;70.99;99247.06;4770008;30;20059;-80
2020/12/07 10:35:10;;;;;;;4.30;1.10;;;;;;;8.18;71.67;99252.94;4770431;30;20484;-80
2020/12/07 10:38:14;;;;;;;6.55;1.73;;;;;;;8.27;71.46;99244.91;4770152;30;20074;-80
2020/12/07 10:41:19;;;;;;;4.47;1.63;;;;;;;8.24;71.86;99239.00;4769988;30;20063;-81
2020/12/07 10:44:23;;;;;;;5.50;1.88;;;;;;;8.32;72.65;99239.97;4770031;30;20059;-81
2020/12/07 10:47:27;;;;;;;4.40;1.50;;;;;;;8.68;72.61;99242.75;4767343;30;20059;-82
2020/12/07 10:50:31;;;;;;;5.72;1.67;;;;;;;8.89;72.76;99240.63;4770562;30;20055;-79
2020/12/07 10:53:36;;;;;;;3.72;1.30;;;;;;;9.10;72.36;99243.88;4769039;30;20047;-81
2020/12/07 10:56:44;;;;;;;4.35;1.13;;;;;;;9.38;71.66;99253.50;4770090;30;20060;-82
2020/12/07 10:59:48;;;;;;;1.90;1.00;;;;;;;9.27;69.57;99253.75;4770583;30;20067;-79
2020/12/07 11:02:52;;;;;;;3.58;1.02;;;;;;;9.23;70.87;99268.44;4769979;30;20059;-80
2020/12/07 11:05:58;;;;;;;2.17;0.98;;;;;;;9.21;71.61;99254.34;4770523;30;20051;-79
2020/12/07 11:09:07;;;;;;;1.60;0.70;;;;;;;9.27;71.23;99258.25;4770015;30;20051;-81
2020/12/07 11:12:15;;;;;;;2.25;0.90;;;;;;;9.33;70.92;99265.69;4770057;30;20059;-81
2020/12/07 11:15:19;;;;;;;4.38;0.80;;;;;;;9.07;71.29;99273.63;4767747;30;20059;-81
2020/12/07 11:18:24;;;;;;;2.03;0.80;;;;;;;8.86;71.80;99275.75;4765661;30;20058;-81
2020/12/07 11:21:28;;;;;;;3.60;0.85;;;;;;;8.99;72.57;99277.03;4770425;30;20059;-81
2020/12/07 11:24:32;;;;;;;1.30;0.60;;;;;;;8.89;70.59;99267.38;4769402;30;20055;-81
2020/12/07 11:27:36;;;;;;;2.00;0.70;;;;;;;9.06;70.47;99250.53;4770277;30;20058;-81
2020/12/07 11:30:41;;;;;;;6.63;1.55;;;;;;;9.36;70.81;99243.94;4770282;30;20591;-80
2020/12/07 11:33:45;;;;;;;5.18;1.55;;;;;;;9.70;69.97;99239.56;4769618;30;20063;-81
2020/12/07 11:36:52;;;;;;;3.75;0.90;;;;;;;9.71;67.96;99225.97;4760665;30;20063;-81
2020/12/07 11:43:18;;;;;;;5.40;1.02;;;;;;;9.86;68.18;99250.38;4744944;30;20051;-81
2020/12/07 11:46:31;;;;;;;2.55;0.80;;;;;;;9.85;67.06;99258.56;4766835;30;20054;-83
2020/12/07 11:49:36;;;;;;;10.63;3.25;;;;;;;9.75;68.08;99254.13;4780121;30;20058;-81
2020/12/07 11:52:40;;;;;;;8.30;4.90;;;;;;;9.69;67.83;99264.66;4774902;30;20055;-79
2020/12/07 11:55:45;;;;;;;6.47;2.83;;;;;;;9.55;68.84;99263.38;4772604;30;20448;-82
2020/12/07 11:58:50;;;;;;;3.83;1.02;;;;;;;9.06;69.04;99248.69;4753619;30;20055;-80
2020/12/07 12:01:54;;;;;;;2.13;1.02;;;;;;;8.92;69.07;99267.09;4762932;30;20059;-81
2020/12/07 12:04:58;;;;;;;3.08;1.80;;;;;;;8.92;70.06;99273.28;4772882;30;20051;-80
2020/12/07 12:08:03;;;;;;;2.33;1.20;;;;;;;8.82;70.44;99269.84;4772320;30;20051;-81
2020/12/07 12:11:06;;;;;;;;;;;;;;;8.81;70.68;99289.56;4772871;30;20055;-81
2020/12/07 12:14:12;;;;;;;3.55;1.75;;;;;;;8.86;71.22;99302.50;4772829;30;19922;-80
2020/12/07 12:17:17;;;;;;;4.15;2.20;;;;;;;8.98;71.21;99296.78;4772279;30;20467;-80
2020/12/07 12:20:21;;;;;;;3.78;1.60;;;;;;;9.09;69.79;99290.38;4772526;30;20063;-80
2020/12/07 12:23:25;;;;;;;4.22;1.88;;;;;;;9.20;69.71;99292.84;4772343;30;20059;-81
2020/12/07 12:26:32;;;;;;;3.15;1.60;;;;;;;9.24;69.65;99286.16;4772266;30;20055;-81
2020/12/07 12:29:36;;;;;;;1.92;0.70;;;;;;;9.27;68.56;99282.34;4771607;30;20062;-81
2020/12/07 12:32:41;;;;;;;1.92;0.90;;;;;;;9.23;68.98;99273.78;4771359;30;20064;-80
2020/12/07 12:35:53;;;;;;;2.75;0.88;;;;;;;9.34;69.46;99283.41;4772362;30;20062;-80
2020/12/07 12:38:57;;;;;;;3.47;1.20;;;;;;;9.38;68.13;99285.63;4771721;30;20070;-80
2020/12/07 12:42:01;;;;;;;3.33;1.10;;;;;;;9.39;67.56;99298.03;4771905;30;20412;-80
2020/12/07 12:45:06;;;;;;;4.82;1.48;;;;;;;9.39;68.44;99295.38;4772377;30;20063;-81
2020/12/07 12:48:10;;;;;;;4.13;1.20;;;;;;;9.52;69.38;99308.38;4772059;30;20059;-76
2020/12/07 12:51:15;;;;;;;2.78;1.00;;;;;;;9.53;68.34;99299.34;4768988;30;20230;-77
2020/12/07 12:54:19;;;;;;;3.40;1.30;;;;;;;9.42;67.65;99294.22;4772124;30;20063;-77
2020/12/07 12:57:26;;;;;;;3.55;1.00;;;;;;;9.52;67.08;99286.94;4771536;30;20062;-77
2020/12/07 13:00:31;;;;;;;3.38;1.08;;;;;;;9.62;67.31;99288.56;4772053;30;20054;-76
2020/12/07 13:03:36;;;;;;;2.90;0.95;;;;;;;9.60;66.96;99293.19;4771787;30;20412;-79
2020/12/07 13:06:42;;;;;;;2.95;0.95;;;;;;;9.46;67.58;99291.06;4771706;30;20058;-81
2020/12/07 13:09:46;;;;;;;3.45;1.30;;;;;;;9.42;69.57;99300.41;4772133;30;20055;-81
2020/12/07 13:12:51;;;;;;;3.97;1.40;;;;;;;9.35;69.49;99304.72;4771546;30;20055;-80
2020/12/07 13:18:59;;;;;;;4.45;1.20;;;;;;;9.31;70.39;99305.16;4771743;30;20403;-81
2020/12/07 13:22:13;;;;;;;2.85;0.90;;;;;;;9.31;69.19;99310.53;4771652;30;20050;-83
2020/12/07 13:25:28;;;;;;;;;;;;;;;9.39;68.78;99305.22;4771223;30;20059;-79
2020/12/07 13:28:33;;;;;;;7.25;1.60;;;;;;;9.40;67.53;99296.22;4771316;30;19922;-81
2020/12/07 13:31:41;;;;;;;5.68;1.45;;;;;;;9.46;67.81;99290.22;4771814;30;20404;-81
2020/12/07 13:34:46;;;;;;;7.50;2.67;;;;;;;9.40;68.36;99291.69;4771631;30;20055;-82
2020/12/07 13:37:50;;;;;;;5.43;2.35;;;;;;;9.47;69.33;99295.44;4771558;30;20058;-81
2020/12/07 13:40:54;;;;;;;5.43;2.00;;;;;;;9.52;69.64;99306.53;4771445;30;20059;-79
2020/12/07 13:43:59;;;;;;;5.80;2.80;;;;;;;9.46;70.73;99306.28;4771897;30;20066;-81
2020/12/07 13:47:04;;;;;;;5.40;1.33;;;;;;;9.31;69.60;99302.50;4771610;30;20062;-82
2020/12/07 13:50:09;;;;;;;4.85;1.63;;;;;;;9.17;70.49;99306.53;4771372;30;20424;-81
2020/12/07 13:53:13;;;;;;;3.50;1.30;;;;;;;9.13;70.07;99314.00;4771070;30;20063;-81
2020/12/07 13:56:18;;;;;;;5.57;1.40;;;;;;;9.15;69.77;99300.47;4769154;30;20556;-81
2020/12/07 13:59:22;;;;;;;4.75;1.38;;;;;;;9.31;68.92;99308.66;4770597;30;20055;-81
2020/12/07 14:02:27;;;;;;;4.63;1.30;;;;;;;9.24;67.70;99286.16;4771220;30;20515;-82
2020/12/07 14:05:31;;;;;;;3.88;1.23;;;;;;;9.25;67.70;99293.22;4774223;30;20074;-81
2020/12/07 14:08:35;;;;;;;3.85;1.30;;;;;;;9.33;67.29;99295.13;4778864;30;20067;-79
2020/12/07 14:11:45;;;;;;;6.65;1.70;;;;;;;9.32;68.17;99310.34;4763406;30;20063;-81
2020/12/07 14:14:50;;;;;;;8.02;2.13;;;;;;;9.33;67.73;99306.69;4769516;30;20068;-81
2020/12/07 14:18:15;;;;;;;8.75;2.35;;;;;;;9.31;67.67;99308.66;4770083;30;20051;-81
2020/12/07 14:21:36;;;;;;;4.20;1.25;;;;;;;9.25;66.60;99325.34;4770086;30;20059;-81
2020/12/07 14:41:25;;;;;;;5.22;1.52;;;;;;;8.89;69.23;99353.03;4757400;30;20067;-81
2020/12/07 14:44:33;;;;;;;3.38;1.52;;;;;;;8.78;70.73;99359.44;4768251;30;20164;-79
2020/12/07 14:47:42;;;;;;;5.85;2.10;;;;;;;8.65;70.61;99363.41;4758389;30;20459;-80
2020/12/07 14:50:51;;;;;;;11.85;2.95;;;;;;;8.52;71.56;99377.09;4768259;30;20055;-82
2020/12/07 14:54:01;;;;;;;12.45;4.25;;;;;;;8.45;71.80;99376.84;4768967;30;20058;-76
2020/12/07 14:57:35;;;;;;;8.93;5.07;;;;;;;8.47;73.73;99380.22;4768502;30;20132;-78
2020/12/07 15:07:10;;;;;;;8.80;2.92;;;;;;;8.55;69.77;99374.16;4770205;30;20054;-82
2020/12/07 15:13:58;;;;;;;6.93;2.30;;;;;;;8.49;70.12;99391.63;4771017;30;20099;-81
2020/12/07 15:17:03;;;;;;;7.97;2.30;;;;;;;8.56;71.26;99407.09;4773731;30;20054;-81
2020/12/07 15:20:07;;;;;;;8.85;3.22;;;;;;;8.51;72.10;99412.88;4774391;30;20078;-81
2020/12/07 15:23:11;;;;;;;8.57;3.80;;;;;;;8.36;77.33;99422.34;4773546;30;20063;-82
2020/12/07 15:26:17;;;;;;;12.77;6.03;;;;;;;8.14;80.06;99428.81;4772986;30;20515;-81
2020/12/07 15:29:21;;;;;;;8.85;5.13;;;;;;;8.00;81.85;99425.72;4773197;30;20562;-82
2020/12/07 15:32:26;;;;;;;11.10;6.97;;;;;;;7.91;82.78;99434.56;4773460;30;20050;-82
2020/12/07 15:35:33;;;;;;;9.23;4.95;;;;;;;7.85;82.25;99427.97;4773077;30;20086;-83
2020/12/07 15:38:40;;;;;;;11.23;4.05;;;;;;;7.75;81.75;99437.81;4773654;30;20055;-81
2020/12/07 15:41:44;;;;;;;6.63;3.78;;;;;;;7.65;81.77;99452.97;4772425;30;20404;-82
2020/12/07 15:44:49;;;;;;;10.38;4.40;;;;;;;7.63;80.44;99461.09;4772634;30;20162;-80